Aérodrome :
LOGIN :

S'inscrire | Disclaimer

   EN    FR    IT 

 










Légende :    VFR   VFR Marginal   IFR   IFR Intensif   IFR Très Intensif
Visi : 
Plafond : 
>= 8 km
>= 3000ft
5 à 8 km
1000 à 3000 ft
1500m à 5 km
500 à 1000 ft
800 à 1500m
200 à 500 ft
< 800m
< 200 ft
Symboles :   Orages  Brouillard  Fortes neiges  Fortes précipitations  Vent > 20 kt
SIGMETs :   Divers  Orages  Givrage  Turbulence  Onde Orograph.  Cendres Volcan.






- Altitude de l'aérodrome : 157 ft
- Code IATA : LIL


LFQQ - Lille Lesquin

DERNIER METAR :
  • 210430Z AUTO VRB01KT 0300 0250 R26/0400N R08/0325N FZFG VV/// M02/M02 Q1042 NOSIG

METARs EXPIRÉS :
  • 210400Z AUTO 04001KT 0350 0250 R26/0500N R08/0400N FZFG VV/// M01/M01 Q1042 NOSIG
  • 210330Z AUTO 07002KT 0450 0400 R26/0600N R08/0550N FZFG VV/// M01/M01 Q1043 BECMG 0300 FZFG
  • 210300Z AUTO VRB02KT 0450 0300 R26/0375N R08/0550N FZFG VV/// M01/M01 Q1043 BECMG 0300 FZFG
  • 210230Z AUTO 03002KT 0300 0250 R26/0300N R08/0375N FZFG VV/// M00/M00 Q1043 NOSIG
  • 210200Z AUTO 04002KT 0200 R26/0225N R08/0275N FG VV/// 01/01 Q1043 BECMG 0300 FZFG

TAF TAF LFQQ
Valide du 21 à 00h jusqu'au 22 à 06h UTC


202300Z 2100/2206 VRB02KT 0300 FG VV///
BECMG 2102/2104 FZFG
BECMG 2107/2110 4000 BR OVC002
BECMG 2110/2113 CAVOK
BECMG 2120/2123 1500 BR OVC002
TEMPO 2123/2206 0300 DZ FG VV///
ATIS : +33 3 20 16 19 54



MET'MAP, la Météo Aéronautique d'un coup d'oeil ! - Copyright ORBIFLY Décembre 2007 - Disclaimer

ORBIFLY MET'MAP TEAM :

Programmation & Développement : Alexandra Zaïnal
Sur une idée originale de : Baudouin d'Aumeries
Assistance à la programmation : Marc-Olivier Méhu
Soutien technique & logistique : Manuel Goepfert

Contact : metmap@orbifly.com




SOURCES & CREDITS :

   NOAA